Latest Weather Observations for Hogan Island

IDV60801

Issued at 9:23 pm EDT Friday 26 February 2021 (issued every 10 minutes, with the page automatically refreshed every 10 minutes)

About weather observations | Map of weather stations | Latest weather observations for VIC | Other Formats
Station Details ID: 200838 Name: HOGAN ISLAND Lat: -39.22 Lon: 146.98 Height: 116.0 m
Data from the previous 72 hours. | See also: Recent months at Hogan Island
Date/Time
EDT
Temp
°C
App
Temp
°C
Dew
Point
°C
Rel
Hum
%
Delta-T
°C
Wind Press
QNH
hPa
Press
MSL
hPa
Rain since
9am
mm
Dir  Spd
km/h
Gust
km/h
Spd
kts
Gust
kts
26/09:00pm 13.8 10.1 9.3 74 2.3 W 19 24 10 13 1014.3 1014.0 0.0
26/08:30pm 13.9 9.9 8.9 72 2.5 W 20 24 11 13 1014.1 - 0.0
26/08:00pm 14.1 10.1 8.9 71 2.6 W 20 26 11 14 1013.9 - 0.0
26/07:30pm 15.3 10.8 9.9 70 2.8 W 24 30 13 16 1013.4 - 0.0
26/07:00pm 15.7 10.5 8.9 64 3.5 WSW 26 30 14 16 1013.2 - 0.0
26/06:30pm 16.3 10.9 9.5 64 3.6 WSW 28 32 15 17 1013.0 - 0.0
26/06:00pm 16.8 10.7 9.7 63 3.7 WSW 32 35 17 19 1013.0 1012.7 0.0
26/05:30pm 17.2 10.9 9.1 59 4.2 WSW 32 37 17 20 1013.0 - 0.0
26/05:00pm 17.3 10.9 9.2 59 4.2 WSW 33 41 18 22 1013.0 - 0.0
26/04:30pm 17.8 11.1 9.7 59 4.3 W 35 41 19 22 1013.0 - 0.0
26/04:00pm 16.7 9.8 8.9 60 4.0 WSW 35 41 19 22 1012.9 - 0.0
26/03:30pm 16.9 10.4 9.1 60 4.1 WSW 33 43 18 23 1013.3 - 0.0
26/03:00pm 17.0 9.9 9.7 62 3.8 WSW 37 46 20 25 1013.2 1012.9 0.0
26/02:30pm 17.8 10.6 10.4 62 4.0 WSW 39 46 21 25 1013.1 - 0.0
26/02:00pm 16.7 8.2 9.1 61 4.0 WSW 44 52 24 28 1013.0 - 0.0
26/01:30pm 16.8 7.9 9.2 61 4.0 WSW 46 56 25 30 1012.5 - 0.0
26/01:00pm 18.0 9.9 10.1 60 4.2 WSW 43 52 23 28 1012.8 - 0.0
26/12:30pm 17.2 9.1 10.1 63 3.8 W 43 52 23 28 1012.8 - 0.0
26/12:00pm 16.0 7.9 8.5 61 3.8 WSW 41 48 22 26 1013.1 1012.8 0.0
26/11:30am 16.7 8.3 8.9 60 4.0 WSW 43 52 23 28 1013.0 - 0.0
26/11:00am 15.1 6.5 8.8 66 3.2 WSW 44 54 24 29 1012.7 - 0.0
26/10:30am 15.3 6.7 9.0 66 3.2 WSW 44 54 24 29 1012.4 - 0.0
26/10:00am 15.4 6.3 8.4 63 3.6 WSW 46 56 25 30 1012.1 - 0.0
26/09:30am 14.2 5.3 7.7 65 3.2 WSW 44 52 24 28 1011.9 - 0.0
26/09:00am 14.9 6.9 9.1 68 3.0 WSW 41 52 22 28 1011.6 1011.3 8.6
26/08:30am 14.0 4.9 8.4 69 2.8 WSW 46 56 25 30 1011.2 - 8.6
26/08:00am 13.7 3.3 7.9 68 2.9 WSW 52 61 28 33 1010.6 - 8.6
26/07:30am 13.4 2.9 7.4 67 2.9 WSW 52 65 28 35 1010.4 - 8.6
26/07:00am 13.3 2.5 7.5 68 2.9 WSW 54 65 29 35 1009.9 - 8.6
26/06:30am 13.3 2.6 8.2 71 2.5 WSW 54 65 29 35 1009.3 - 8.6
26/06:00am 13.3 3.0 8.0 70 2.6 WSW 52 65 28 35 1009.1 1008.8 8.6
26/05:48am 12.3 1.3 9.0 80 1.7 W 57 70 31 38 1009.0 - 8.6
26/05:40am 13.3 3.0 8.2 71 2.5 SW 52 70 28 38 1008.9 - 8.6
26/05:30am 13.3 2.6 8.2 71 2.5 WSW 54 63 29 34 1008.9 - 8.6
26/05:00am 13.5 2.6 8.8 73 2.4 WSW 56 70 30 38 1008.7 - 8.6
26/04:30am 13.2 2.2 9.3 77 2.0 WSW 57 67 31 36 1008.5 - 8.6
26/04:00am 13.4 3.7 9.1 75 2.2 WSW 50 67 27 36 1008.5 - 8.6
26/03:30am 13.5 2.8 9.6 77 2.0 WSW 56 69 30 37 1008.6 - 8.6
26/03:00am 13.1 1.4 9.2 77 2.0 WSW 61 74 33 40 1008.6 1008.3 8.6
26/02:30am 13.3 1.4 8.6 73 2.4 WSW 61 72 33 39 1008.5 - 8.6
26/02:00am 13.1 2.1 9.0 76 2.1 WSW 57 65 31 35 1009.0 - 8.6
26/01:30am 13.5 3.0 9.0 74 2.3 WSW 54 67 29 36 1009.2 - 8.6
26/01:00am 13.2 1.8 7.6 69 2.8 WSW 57 67 31 36 1009.1 - 8.6
26/12:30am 13.5 1.8 7.9 69 2.8 W 59 69 32 37 1008.9 - 8.6
26/12:00am 13.6 1.2 8.2 70 2.7 WSW 63 72 34 39 1008.7 1008.4 8.6
 
Date/Time
EDT
Temp
°C
App
Temp
°C
Dew
Point
°C
Rel
Hum
%
Delta-T
°C
Wind Press
QNH
hPa
Press
MSL
hPa
Rain since
9am
mm
Dir  Spd
km/h
Gust
km/h
Spd
kts
Gust
kts
25/11:30pm 13.6 1.3 8.4 71 2.6 W 63 74 34 40 1008.6 - 8.6
25/11:00pm 13.4 0.5 7.6 68 2.9 W 65 76 35 41 1008.6 - 8.6
25/10:30pm 13.6 0.5 8.4 71 2.6 W 67 76 36 41 1008.5 - 8.6
25/10:00pm 13.6 1.0 8.7 72 2.5 W 65 74 35 40 1008.5 - 8.6
25/09:30pm 13.5 1.3 9.0 74 2.3 W 63 74 34 40 1008.4 - 8.6
25/09:00pm 13.4 3.1 9.5 77 2.0 W 54 61 29 33 1008.7 1008.4 8.6
25/08:50pm 13.5 1.9 9.9 79 1.9 WSW 61 67 33 36 1008.5 - 8.6
25/08:30pm 13.0 5.6 11.1 88 1.0 W 41 48 22 26 1008.7 - 8.6
25/08:00pm 12.6 4.0 11.8 95 0.4 WSW 48 59 26 32 1008.3 - 8.4
25/07:30pm 12.2 4.4 11.9 98 0.2 WSW 44 54 24 29 1007.9 - 8.2
25/07:00pm 12.3 4.2 12.1 99 0.1 SW 46 61 25 33 1007.2 - 7.8
25/06:30pm 12.9 4.6 12.7 99 0.1 SW 48 57 26 31 1006.8 - 6.6
25/06:10pm 13.1 5.3 12.9 99 0.1 WSW 46 70 25 38 1006.7 - 5.6
25/06:00pm 13.0 4.8 12.8 99 0.1 WSW 48 57 26 31 1006.5 1006.2 5.4
25/05:59pm 13.2 4.6 13.0 99 0.1 WSW 50 61 27 33 1006.6 - 5.2
25/05:40pm 13.4 2.4 13.1 98 0.2 W 63 109 34 59 1006.1 - 2.4
25/05:30pm 14.0 -0.6 13.7 98 0.2 WNW 83 107 45 58 1004.5 - 2.0
25/05:06pm 15.5 3.1 12.4 82 1.7 WNW 69 87 37 47 1005.3 - 0.2
25/05:00pm 15.6 4.5 12.7 83 1.6 WNW 63 76 34 41 1005.2 - 0.2
25/04:56pm 15.1 4.0 12.8 86 1.3 WNW 63 82 34 44 1005.5 - 0.2
25/04:30pm 16.4 3.9 11.8 74 2.5 WNW 69 80 37 43 1005.3 - 0.0
25/04:00pm 16.7 5.3 11.8 73 2.7 WNW 63 76 34 41 1005.8 - 0.0
25/03:30pm 17.6 7.3 11.6 68 3.3 WNW 57 70 31 38 1006.3 - 0.0
25/03:00pm 17.2 6.9 11.2 68 3.3 WNW 56 67 30 36 1006.8 1006.5 0.0
25/02:30pm 16.6 5.9 10.2 66 3.4 WNW 57 65 31 35 1007.2 - 0.0
25/02:00pm 17.1 6.2 10.9 67 3.3 WNW 59 70 32 38 1007.1 - 0.0
25/01:30pm 16.7 5.7 10.5 67 3.3 WNW 59 72 32 39 1007.0 - 0.0
25/01:00pm 17.0 8.2 11.1 68 3.2 WNW 48 61 26 33 1007.7 - 0.0
25/12:30pm 16.8 8.0 10.9 68 3.2 WNW 48 57 26 31 1008.3 - 0.0
25/12:00pm 17.2 9.8 11.2 68 3.3 WNW 41 50 22 27 1008.8 1008.5 0.0
25/11:30am 16.4 8.6 11.1 71 2.9 WNW 43 50 23 27 1009.2 - 0.0
25/11:00am 16.9 8.8 10.7 67 3.3 WNW 44 54 24 29 1009.4 - 0.0
25/10:30am 16.4 8.9 10.9 70 3.0 WNW 41 50 22 27 1009.9 - 0.0
25/10:00am 15.5 8.0 10.7 73 2.6 WNW 41 46 22 25 1009.7 - 0.0
25/09:30am 15.5 8.5 11.3 76 2.3 WNW 39 46 21 25 1010.0 - 0.0
25/09:00am 15.7 10.0 11.1 74 2.5 WNW 32 37 17 20 1010.1 1009.8 0.0
25/08:30am 15.5 10.5 11.1 75 2.4 WNW 28 33 15 18 1010.2 - 0.0
25/08:00am 15.3 10.3 10.9 75 2.4 WNW 28 32 15 17 1010.4 - 0.0
25/07:30am 15.1 10.8 10.7 75 2.3 WNW 24 28 13 15 1010.3 - 0.0
25/07:00am 15.0 10.3 10.8 76 2.2 W 26 30 14 16 1010.5 - 0.0
25/06:30am 14.7 11.1 10.5 76 2.2 W 20 26 11 14 1010.4 - 0.0
25/06:00am 14.9 10.8 10.1 73 2.5 W 22 28 12 15 1010.5 1010.3 0.0
25/05:30am 14.8 11.1 10.2 74 2.4 WSW 20 26 11 14 1010.6 - 0.0
25/05:00am 14.5 10.7 9.7 73 2.5 WSW 20 26 11 14 1010.9 - 0.0
25/04:30am 13.6 10.7 9.6 77 2.1 SW 15 17 8 9 1011.3 - 0.0
25/04:00am 13.2 10.3 9.5 78 1.9 SW 15 19 8 10 1011.6 - 0.0
25/03:30am 13.1 10.9 9.4 78 1.9 SW 11 15 6 8 1012.1 - 0.0
25/03:00am 13.3 11.1 9.5 78 2.0 SSW 11 15 6 8 1012.6 1012.3 0.0
25/02:30am 13.7 12.0 9.9 78 2.0 SSW 9 15 5 8 1013.3 - 0.0
25/02:00am 13.8 13.8 9.8 77 2.1 CALM 0 0 0 0 1013.9 - 0.0
25/01:30am 13.7 13.6 9.6 76 2.1 CALM 0 0 0 0 1014.5 - 0.0
25/01:00am 13.7 12.5 9.6 76 2.1 NE 6 7 3 4 1015.0 - 0.0
25/12:30am 13.6 12.2 9.5 76 2.1 ENE 7 9 4 5 1015.1 - 0.0
25/12:00am 12.9 10.6 9.0 77 2.0 NE 11 15 6 8 1015.5 1015.2 0.0
 
Date/Time
EDT
Temp
°C
App
Temp
°C
Dew
Point
°C
Rel
Hum
%
Delta-T
°C
Wind Press
QNH
hPa
Press
MSL
hPa
Rain since
9am
mm
Dir  Spd
km/h
Gust
km/h
Spd
kts
Gust
kts
24/11:30pm 12.8 9.7 8.7 76 2.1 NE 15 17 8 9 1016.0 - 0.0
24/11:00pm 13.4 11.7 8.5 72 2.5 ENE 7 11 4 6 1016.4 - 0.0
24/10:30pm 13.4 11.7 8.3 71 2.6 ENE 7 9 4 5 1016.7 - 0.0
24/10:00pm 13.1 11.3 8.0 71 2.5 ENE 7 11 4 6 1017.1 - 0.0
24/09:30pm 13.0 10.7 7.5 69 2.7 NNE 9 11 5 6 1017.2 - 0.0
24/09:00pm 13.1 10.6 8.0 71 2.5 NNE 11 15 6 8 1017.0 1016.7 0.0
24/08:30pm 12.7 9.6 7.4 70 2.6 NE 13 17 7 9 1017.0 - 0.0
24/08:00pm 13.1 10.8 7.3 68 2.8 ENE 9 11 5 6 1017.1 - 0.0
24/07:30pm 14.3 12.4 7.6 64 3.3 NE 7 9 4 5 1017.0 - 0.0
24/07:00pm 15.4 13.8 7.9 61 3.8 ENE 6 7 3 4 1017.1 - 0.0
24/06:30pm 16.2 14.1 8.4 60 4.0 E 9 13 5 7 1017.1 - 0.0
24/06:00pm 16.6 14.8 8.1 57 4.3 SE 7 11 4 6 1017.1 1016.8 0.0
24/05:30pm 17.5 15.4 8.4 55 4.7 S 9 13 5 7 1017.4 - 0.0
24/05:00pm 17.5 15.0 8.4 55 4.7 S 11 20 6 11 1017.7 - 0.0
24/04:30pm 17.7 15.2 8.3 54 4.8 WSW 11 13 6 7 1017.8 - 0.0
24/04:00pm 18.2 15.5 9.0 55 4.8 WSW 13 17 7 9 1018.2 - 0.0
24/03:30pm 18.2 15.4 8.7 54 4.9 WSW 13 19 7 10 1018.5 - 0.0
24/03:00pm 17.9 15.1 8.7 55 4.8 SW 13 17 7 9 1019.0 1018.8 0.0
24/02:30pm 18.2 15.9 9.0 55 4.8 W 11 17 6 9 1019.3 - 0.0
24/02:00pm 18.2 15.4 8.7 54 4.9 W 13 17 7 9 1019.6 - 0.0
24/01:30pm 16.9 14.4 8.1 56 4.5 W 11 17 6 9 1020.0 - 0.0
24/01:00pm 18.5 15.4 8.7 53 5.1 W 15 20 8 11 1020.2 - 0.0
24/12:30pm 18.3 14.2 8.0 51 5.3 WNW 19 24 10 13 1020.6 - 0.0
24/12:00pm 18.0 13.4 8.0 52 5.1 W 22 28 12 15 1020.8 1020.5 0.0
24/11:30am 18.1 14.7 9.2 56 4.7 W 17 24 9 13 1020.9 - 0.0
24/11:00am 17.0 12.9 8.7 58 4.3 WSW 20 24 11 13 1021.0 - 0.0
24/10:30am 17.2 13.2 10.3 64 3.7 WSW 22 26 12 14 1020.9 - 0.0
24/10:00am 16.8 12.4 7.4 54 4.7 W 20 26 11 14 1020.6 - 0.0
24/09:30am 16.0 11.6 6.7 54 4.6 WNW 19 22 10 12 1020.5 - 0.0
24/09:00am 15.5 11.5 6.5 55 4.4 WNW 17 20 9 11 1020.2 1019.9 0.0
24/08:30am 15.0 11.1 7.1 59 3.9 W 17 22 9 12 1020.0 - 0.0
24/08:00am 14.0 10.1 7.1 63 3.4 W 17 22 9 12 1019.6 - 0.0
24/07:30am 13.7 9.7 6.8 63 3.4 W 17 20 9 11 1019.5 - 0.0
24/07:00am 12.9 9.2 6.5 65 3.1 WSW 15 20 8 11 1019.2 - 0.0
24/06:30am 13.1 8.2 6.7 65 3.1 WSW 22 28 12 15 1018.9 - 0.0
24/06:00am 13.3 8.3 6.6 64 3.2 WSW 22 30 12 16 1018.7 1018.5 0.0
24/05:30am 13.3 8.1 7.3 67 2.9 WSW 24 28 13 15 1018.6 - 0.0
24/05:00am 13.3 8.1 7.1 66 3.0 WSW 24 32 13 17 1018.6 - 0.0
24/04:30am 13.5 7.4 6.6 63 3.3 WSW 28 35 15 19 1018.6 - 0.0
24/04:00am 13.2 6.9 5.9 61 3.5 WSW 28 32 15 17 1018.6 - 0.0
24/03:30am 13.5 7.8 6.6 63 3.3 WSW 26 33 14 18 1018.6 - 0.0
24/03:00am 13.3 7.8 5.9 61 3.5 WSW 24 30 13 16 1018.7 1018.5 0.0
24/02:30am 13.7 8.0 6.6 62 3.4 WSW 26 30 14 16 1018.9 - 0.0
24/02:00am 13.6 7.3 5.7 59 3.7 WSW 28 32 15 17 1018.9 - 0.0
24/01:30am 13.6 7.4 6.2 61 3.5 WSW 28 32 15 17 1019.2 - 0.0
24/01:00am 13.6 6.9 5.7 59 3.7 WSW 30 35 16 19 1019.4 - 0.0
24/12:30am 13.9 6.7 4.8 54 4.2 W 32 37 17 20 1019.6 - 0.0
24/12:00am 14.3 8.4 7.4 63 3.4 WSW 28 37 15 20 1019.7 1019.5 0.0
 
Date/Time
EDT
Temp
°C
App
Temp
°C
Dew
Point
°C
Rel
Hum
%
Delta-T
°C
Wind Press
QNH
hPa
Press
MSL
hPa
Rain since
9am
mm
Dir  Spd
km/h
Gust
km/h
Spd
kts
Gust
kts
23/11:30pm 13.7 7.6 6.6 62 3.4 WSW 28 35 15 19 1019.7 - 0.0
23/11:00pm 13.9 7.5 7.0 63 3.4 WSW 30 35 16 19 1019.7 - 0.0
23/10:30pm 14.1 7.8 7.6 65 3.2 WSW 30 35 16 19 1019.6 - 0.0
23/10:00pm 14.1 7.3 7.9 66 3.1 WSW 33 41 18 22 1019.6 - 0.0
23/09:30pm 14.3 7.5 7.8 65 3.2 WSW 33 39 18 21 1019.4 - 0.0

Other formats

Comma delimited format used in spreadsheet applications
http://www.bom.gov.au/fwo/IDV60801/IDV60801.94949.axf

JavaScript Object Notation format (JSON) in row-major order
http://www.bom.gov.au/fwo/IDV60801/IDV60801.94949.json

Data quality

Most of these data are generated automatically and are frequently updated. Quality checks on data are not normally performed. It is possible for incorrect values to appear. Refer to information at About Latest Weather Observations and please check the disclaimer before using these data.